Terminal Aerodrome Forecast
Issued by NWS

Home | Current Version | Previous Version | Text Only | Print | Product List | Glossary On
Versions: 1 2 3 4 5 6 7 8 9 10 11 12 13 14 15 16 17 18 19 20 21 22 23 24 25 26 27 28 29 30 31 32 33 34 35
000
FTUS43 KDTX 230819 AAA
TAFDET
TAF AMD
KDET 230819Z 2308/2406 06007KT 1SM BR OVC004
      TEMPO 2308/2312 1/2SM FG VV002
     FM231200 06007KT 1SM -SHRA BR OVC004
     FM231700 03007KT 2SM -RA BR OVC008
     FM240000 02003KT 1SM -DZ BR OVC005=

USA.gov is the U.S. government's official web portal to all federal, state and local government web resources and services.